Time;durP1;ratioP1;P1;durP2;ratioP2;P2;SDS_P1;SDS_P2;PMS_P1;PMS_P2;Temp;Humidity;BMP_temperature;BMP_pressure;BME280_temperature;BME280_humidity;BME280_pressure;Samples;Min_cycle;Max_cycle;Signal;HPM_P1;HPM_P2
2022/04/30 00:01:19;;;;;;;6.82;5.30;;;;;;;;;;4963476;28;20466;-79
2022/04/30 00:03:48;;;;;;;6.40;5.80;;;;;;;;;;4961635;28;20134;-80
2022/04/30 00:06:15;;;;;;;7.93;5.60;;;;;;;;;;4961108;28;20047;-79
2022/04/30 00:08:42;;;;;;;5.82;5.30;;;;;;;;;;4945390;28;20102;-79
2022/04/30 00:11:10;;;;;;;5.55;5.10;;;;;;;;;;4963432;28;20034;-81
2022/04/30 00:13:38;;;;;;;6.05;5.50;;;;;;;;;;4960804;28;20470;-81
2022/04/30 00:16:05;;;;;;;5.68;5.18;;;;;;;;;;4948011;28;20117;-79
2022/04/30 00:18:33;;;;;;;7.93;5.95;;;;;;;;;;4960446;28;20046;-79
2022/04/30 00:21:00;;;;;;;5.35;4.85;;;;;;;;;;4946918;28;20061;-81
2022/04/30 00:23:28;;;;;;;5.68;5.10;;;;;;;;;;4961377;28;20039;-79
2022/04/30 00:25:56;;;;;;;6.22;5.63;;;;;;;;;;4945977;28;20042;-79
2022/04/30 00:28:25;;;;;;;6.03;5.43;;;;;;;;;;4944937;28;20050;-80
2022/04/30 00:30:53;;;;;;;5.88;5.35;;;;;;;;;;4957734;28;20382;-80
2022/04/30 00:33:21;;;;;;;6.03;5.53;;;;;;;;;;4940432;28;20123;-80
2022/04/30 00:35:48;;;;;;;7.38;6.10;;;;;;;;;;4964147;28;20050;-79
2022/04/30 00:38:15;;;;;;;5.40;4.90;;;;;;;;;;4944673;28;20051;-82
2022/04/30 00:40:43;;;;;;;6.47;5.78;;;;;;;;;;4962002;28;20499;-79
2022/04/30 00:43:10;;;;;;;5.95;5.35;;;;;;;;;;4942966;28;20127;-81
2022/04/30 00:45:44;;;;;;;5.93;5.30;;;;;;;;;;4943305;28;20097;-80
2022/04/30 00:48:12;;;;;;;6.82;6.18;;;;;;;;;;4955718;28;20058;-80
2022/04/30 00:50:41;;;;;;;6.40;5.80;;;;;;;;;;4944992;28;20490;-80
2022/04/30 00:53:09;;;;;;;6.95;6.35;;;;;;;;;;4952463;28;20062;-79
2022/04/30 00:55:37;;;;;;;5.60;5.18;;;;;;;;;;4946870;28;20153;-80
2022/04/30 00:58:07;;;;;;;6.30;5.70;;;;;;;;;;4938164;28;20169;-82
2022/04/30 01:00:38;;;;;;;7.70;6.20;;;;;;;;;;4935659;28;20898;-80
2022/04/30 01:03:16;;;;;;;6.75;6.05;;;;;;;;;;4943652;28;20043;-79
2022/04/30 01:06:03;;;;;;;5.70;5.13;;;;;;;;;;4979455;28;20625;-78
2022/04/30 01:08:31;;;;;;;5.97;5.30;;;;;;;;;;4957831;28;20466;-80
2022/04/30 01:11:03;;;;;;;6.13;5.60;;;;;;;;;;4963219;28;20085;-79
2022/04/30 01:13:34;;;;;;;6.55;5.70;;;;;;;;;;4963289;28;20125;-80
2022/04/30 01:16:03;;;;;;;6.28;5.68;;;;;;;;;;4966750;28;20046;-79
2022/04/30 01:18:33;;;;;;;5.90;5.38;;;;;;;;;;4957927;28;20522;-79
2022/04/30 01:21:03;;;;;;;7.38;6.50;;;;;;;;;;4968043;28;20499;-79
2022/04/30 01:23:32;;;;;;;6.10;5.50;;;;;;;;;;4945959;28;20035;-79
2022/04/30 01:26:01;;;;;;;6.60;6.00;;;;;;;;;;4972502;28;20081;-79
2022/04/30 01:28:29;;;;;;;5.97;5.47;;;;;;;;;;4976349;28;20049;-81
2022/04/30 01:30:58;;;;;;;7.18;6.38;;;;;;;;;;4949462;28;20043;-80
2022/04/30 01:38:58;;;;;;;7.45;6.38;;;;;;;;;;4967041;28;20054;-79
2022/04/30 01:41:26;;;;;;;8.35;6.97;;;;;;;;;;4953711;28;20046;-78
2022/04/30 01:43:54;;;;;;;7.85;6.55;;;;;;;;;;4970650;28;20113;-78
2022/04/30 01:46:22;;;;;;;7.20;6.50;;;;;;;;;;4968834;28;20050;-79
2022/04/30 01:48:50;;;;;;;6.88;6.18;;;;;;;;;;4948610;28;20081;-78
2022/04/30 01:51:17;;;;;;;7.78;7.07;;;;;;;;;;4966090;28;20049;-79
2022/04/30 01:53:44;;;;;;;6.57;6.03;;;;;;;;;;4962569;28;20098;-79
2022/04/30 01:56:12;;;;;;;6.47;5.90;;;;;;;;;;4966517;28;20066;-77
2022/04/30 01:59:00;;;;;;;6.10;5.60;;;;;;;;;;4973585;28;20070;-79
2022/04/30 02:01:27;;;;;;;6.97;6.18;;;;;;;;;;4939974;28;20062;-79
2022/04/30 02:03:56;;;;;;;5.97;5.47;;;;;;;;;;4942273;28;20050;-79
2022/04/30 02:06:24;;;;;;;6.00;5.50;;;;;;;;;;4967363;28;20465;-77
2022/04/30 02:08:51;;;;;;;6.60;5.88;;;;;;;;;;4972347;28;20424;-79
2022/04/30 02:11:19;;;;;;;6.30;5.80;;;;;;;;;;4965893;28;20039;-77
2022/04/30 02:13:53;;;;;;;6.78;6.07;;;;;;;;;;4971580;28;20321;-79
2022/04/30 02:16:21;;;;;;;6.25;5.50;;;;;;;;;;4975313;28;20050;-79
2022/04/30 02:18:50;;;;;;;5.90;5.43;;;;;;;;;;4954978;28;20097;-80
2022/04/30 02:21:20;;;;;;;6.32;5.38;;;;;;;;;;4944701;28;20047;-77
2022/04/30 02:23:51;;;;;;;6.20;5.72;;;;;;;;;;4977285;28;20137;-76
2022/04/30 02:26:19;;;;;;;6.22;5.70;;;;;;;;;;4969363;28;20479;-79
2022/04/30 02:28:46;;;;;;;6.20;5.60;;;;;;;;;;4956182;28;20554;-78
2022/04/30 02:31:24;;;;;;;6.45;5.80;;;;;;;;;;4973195;28;20074;-78
2022/04/30 02:33:56;;;;;;;6.88;6.28;;;;;;;;;;4950604;28;20053;-79
2022/04/30 02:36:27;;;;;;;6.75;6.15;;;;;;;;;;4973910;28;20059;-79
2022/04/30 02:38:56;;;;;;;8.15;7.35;;;;;;;;;;4949713;28;20054;-79
2022/04/30 02:41:23;;;;;;;6.68;6.10;;;;;;;;;;4963887;28;20110;-78
2022/04/30 02:43:53;;;;;;;5.88;5.38;;;;;;;;;;4975370;28;20070;-78
2022/04/30 02:46:21;;;;;;;6.50;5.60;;;;;;;;;;4969860;28;20067;-79
2022/04/30 02:48:48;;;;;;;8.50;5.72;;;;;;;;;;4935337;28;20039;-80
2022/04/30 02:51:16;;;;;;;7.30;6.57;;;;;;;;;;4972303;28;20102;-79
2022/04/30 02:53:44;;;;;;;7.65;6.80;;;;;;;;;;4972212;28;20126;-77
2022/04/30 02:56:12;;;;;;;7.32;6.28;;;;;;;;;;4967455;28;20043;-77
2022/04/30 03:01:25;;;;;;;7.85;6.80;;;;;;;;;;4954676;28;20117;-79
2022/04/30 03:04:06;;;;;;;7.82;6.40;;;;;;;;;;4969363;28;20703;-79
2022/04/30 03:06:37;;;;;;;8.88;7.22;;;;;;;;;;4972799;28;20042;-78
2022/04/30 03:09:05;;;;;;;7.40;6.60;;;;;;;;;;4974341;28;20078;-76
2022/04/30 03:11:32;;;;;;;10.93;7.32;;;;;;;;;;4981815;28;20230;-77
2022/04/30 03:14:00;;;;;;;9.15;7.13;;;;;;;;;;4952906;28;20452;-79
2022/04/30 03:22:00;;;;;;;7.03;6.30;;;;;;;;;;4978260;28;20511;-79
2022/04/30 03:24:29;;;;;;;7.25;6.55;;;;;;;;;;4960830;28;20134;-77
2022/04/30 03:26:56;;;;;;;10.10;7.10;;;;;;;;;;4980942;28;20042;-79
2022/04/30 03:29:24;;;;;;;7.82;6.55;;;;;;;;;;4970226;28;20043;-77
2022/04/30 03:31:51;;;;;;;7.10;6.50;;;;;;;;;;4974517;28;20125;-79
2022/04/30 03:34:19;;;;;;;8.95;7.13;;;;;;;;;;4985755;28;20082;-79
2022/04/30 03:36:46;;;;;;;7.45;6.72;;;;;;;;;;4966621;28;20074;-79
2022/04/30 03:39:14;;;;;;;7.45;6.75;;;;;;;;;;4972175;28;20043;-77
2022/04/30 03:41:41;;;;;;;6.68;6.05;;;;;;;;;;4970921;28;20141;-79
2022/04/30 03:44:08;;;;;;;8.18;7.43;;;;;;;;;;4953460;28;20078;-79
2022/04/30 03:46:36;;;;;;;7.07;6.32;;;;;;;;;;4971413;28;20043;-79
2022/04/30 03:49:04;;;;;;;9.70;6.57;;;;;;;;;;4972230;28;20038;-79
2022/04/30 03:51:31;;;;;;;6.60;6.00;;;;;;;;;;4953234;28;20062;-79
2022/04/30 03:53:58;;;;;;;10.30;6.38;;;;;;;;;;4970466;28;20047;-76
2022/04/30 03:56:26;;;;;;;6.60;6.00;;;;;;;;;;4970363;28;20039;-79
2022/04/30 03:58:53;;;;;;;6.90;6.30;;;;;;;;;;4969679;28;20039;-80
2022/04/30 04:01:24;;;;;;;6.35;5.78;;;;;;;;;;4965470;28;20053;-80
2022/04/30 04:03:52;;;;;;;7.07;6.47;;;;;;;;;;4954222;28;20055;-77
2022/04/30 04:06:19;;;;;;;6.25;5.65;;;;;;;;;;4971475;28;20078;-77
2022/04/30 04:08:50;;;;;;;6.90;6.30;;;;;;;;;;4954621;28;20055;-79
2022/04/30 04:11:18;;;;;;;8.43;7.65;;;;;;;;;;4969391;28;20268;-79
2022/04/30 04:19:20;;;;;;;6.47;5.97;;;;;;;;;;4971488;28;20302;-78
2022/04/30 04:21:47;;;;;;;6.90;6.30;;;;;;;;;;4959171;28;20059;-79
2022/04/30 04:27:02;;;;;;;7.55;6.95;;;;;;;;;;4959896;28;20408;-79
2022/04/30 04:29:30;;;;;;;8.57;7.72;;;;;;;;;;4944262;28;20102;-79
2022/04/30 04:31:57;;;;;;;9.30;7.78;;;;;;;;;;4961926;28;20055;-79
2022/04/30 04:34:24;;;;;;;7.55;6.95;;;;;;;;;;4959429;28;20046;-79
2022/04/30 04:36:52;;;;;;;7.18;6.47;;;;;;;;;;4952445;28;20109;-76
2022/04/30 04:39:19;;;;;;;6.40;5.80;;;;;;;;;;4927725;23;1117760;-79
2022/04/30 04:41:46;;;;;;;6.90;6.30;;;;;;;;;;5007630;28;20077;-79
2022/04/30 04:44:14;;;;;;;8.23;6.43;;;;;;;;;;5009251;28;20050;-80
2022/04/30 04:46:41;;;;;;;6.68;5.95;;;;;;;;;;4995973;28;20037;-80
2022/04/30 04:49:09;;;;;;;6.72;6.13;;;;;;;;;;4993406;28;20042;-80
2022/04/30 04:51:37;;;;;;;6.72;6.13;;;;;;;;;;5013021;28;20026;-80
2022/04/30 04:54:04;;;;;;;8.18;7.18;;;;;;;;;;4994078;28;20518;-80
2022/04/30 04:56:32;;;;;;;9.02;8.07;;;;;;;;;;5010752;28;20064;-80
2022/04/30 04:59:00;;;;;;;7.95;7.25;;;;;;;;;;5010188;28;20076;-81
2022/04/30 05:01:27;;;;;;;8.85;8.10;;;;;;;;;;5012851;28;20046;-80
2022/04/30 05:03:54;;;;;;;7.28;6.63;;;;;;;;;;4995084;28;20049;-79
2022/04/30 05:06:22;;;;;;;7.22;6.60;;;;;;;;;;5008743;28;20069;-79
2022/04/30 05:08:49;;;;;;;7.47;6.78;;;;;;;;;;5012676;28;20042;-80
2022/04/30 05:11:22;;;;;;;8.45;7.75;;;;;;;;;;4977892;28;20092;-80
2022/04/30 05:13:49;;;;;;;8.98;8.13;;;;;;;;;;5010575;28;20054;-80
2022/04/30 05:16:17;;;;;;;8.98;8.27;;;;;;;;;;5006146;28;20050;-80
2022/04/30 05:18:44;;;;;;;9.93;8.05;;;;;;;;;;5009752;28;20164;-81
2022/04/30 05:21:11;;;;;;;7.80;7.10;;;;;;;;;;5012757;28;20038;-80
2022/04/30 05:23:39;;;;;;;9.18;6.53;;;;;;;;;;5013510;28;20052;-81
2022/04/30 05:26:06;;;;;;;7.78;6.80;;;;;;;;;;5014399;28;20108;-80
2022/04/30 05:28:34;;;;;;;7.30;6.70;;;;;;;;;;5020121;28;20042;-80
2022/04/30 05:31:01;;;;;;;7.40;6.80;;;;;;;;;;5004156;28;20042;-80
2022/04/30 05:33:32;;;;;;;7.15;6.47;;;;;;;;;;5000298;28;20044;-80
2022/04/30 05:36:00;;;;;;;7.15;6.45;;;;;;;;;;5001405;28;20104;-80
2022/04/30 05:38:27;;;;;;;7.05;6.43;;;;;;;;;;5018896;28;20076;-80
2022/04/30 05:40:54;;;;;;;7.30;6.60;;;;;;;;;;5002501;28;20046;-80
2022/04/30 05:43:22;;;;;;;7.50;6.85;;;;;;;;;;4986897;28;20042;-80
2022/04/30 05:45:49;;;;;;;8.55;6.95;;;;;;;;;;5019083;28;20570;-80
2022/04/30 05:48:16;;;;;;;7.63;6.88;;;;;;;;;;5015341;28;20034;-81
2022/04/30 05:50:44;;;;;;;8.82;7.78;;;;;;;;;;5002637;28;20069;-81
2022/04/30 05:53:12;;;;;;;8.30;7.60;;;;;;;;;;5015553;28;20099;-78
2022/04/30 05:55:41;;;;;;;8.23;7.32;;;;;;;;;;5003309;28;20057;-81
2022/04/30 05:58:08;;;;;;;8.70;7.80;;;;;;;;;;4988960;28;20045;-80
2022/04/30 06:00:36;;;;;;;8.75;7.85;;;;;;;;;;5002611;28;20073;-82
2022/04/30 06:03:03;;;;;;;9.00;8.10;;;;;;;;;;5015040;28;20048;-81
2022/04/30 06:05:31;;;;;;;8.13;7.30;;;;;;;;;;5022626;28;20038;-81
2022/04/30 06:07:59;;;;;;;7.75;6.97;;;;;;;;;;5019536;28;20519;-81
2022/04/30 06:10:26;;;;;;;7.47;6.78;;;;;;;;;;5015920;28;20093;-81
2022/04/30 06:12:54;;;;;;;9.27;8.00;;;;;;;;;;5012371;28;20045;-79
2022/04/30 06:15:21;;;;;;;8.02;7.22;;;;;;;;;;5005003;28;20052;-80
2022/04/30 06:17:48;;;;;;;7.45;6.85;;;;;;;;;;4975670;28;20046;-81
2022/04/30 06:20:16;;;;;;;8.70;7.15;;;;;;;;;;4999563;28;20523;-80
2022/04/30 06:22:43;;;;;;;6.97;6.38;;;;;;;;;;4993317;28;20052;-80
2022/04/30 06:25:11;;;;;;;7.47;6.75;;;;;;;;;;4995252;28;20065;-80
2022/04/30 06:27:39;;;;;;;7.18;6.60;;;;;;;;;;5007167;28;20269;-81
2022/04/30 06:30:07;;;;;;;7.25;6.55;;;;;;;;;;5000708;28;20090;-81
2022/04/30 06:32:35;;;;;;;7.35;6.75;;;;;;;;;;4998721;28;20049;-81
2022/04/30 06:35:06;;;;;;;7.72;7.03;;;;;;;;;;4988393;28;20519;-79
2022/04/30 06:37:33;;;;;;;11.93;6.95;;;;;;;;;;4990571;28;20038;-82
2022/04/30 06:40:01;;;;;;;7.40;6.80;;;;;;;;;;4993170;28;20045;-81
2022/04/30 06:42:38;;;;;;;6.78;6.18;;;;;;;;;;5015479;28;20152;-81
2022/04/30 06:45:06;;;;;;;6.45;5.95;;;;;;;;;;5012251;28;20034;-80
2022/04/30 06:47:35;;;;;;;6.53;6.03;;;;;;;;;;4978796;28;20473;-80
2022/04/30 06:50:02;;;;;;;8.07;6.90;;;;;;;;;;4995764;28;20128;-81
2022/04/30 06:52:30;;;;;;;7.57;6.35;;;;;;;;;;4995290;28;20382;-81
2022/04/30 06:57:58;;;;;;;6.95;6.20;;;;;;;;;;4973853;28;20074;-80
2022/04/30 07:03:29;;;;;;;8.55;6.82;;;;;;;;;;4980796;28;20702;-82
2022/04/30 07:06:04;;;;;;;6.20;5.72;;;;;;;;;;5008574;28;20064;-81
2022/04/30 07:08:32;;;;;;;6.82;6.22;;;;;;;;;;5007891;28;20473;-80
2022/04/30 07:11:00;;;;;;;6.45;5.95;;;;;;;;;;4994036;28;20084;-80
2022/04/30 07:13:29;;;;;;;6.65;6.00;;;;;;;;;;5011297;28;20057;-81
2022/04/30 07:15:58;;;;;;;6.72;6.13;;;;;;;;;;5011875;28;20046;-81
2022/04/30 07:18:26;;;;;;;6.53;5.93;;;;;;;;;;5021415;28;20408;-81
2022/04/30 07:20:55;;;;;;;6.88;6.00;;;;;;;;;;4985072;28;20034;-81
2022/04/30 07:23:23;;;;;;;6.50;5.85;;;;;;;;;;5003379;28;20046;-88
2022/04/30 07:25:53;;;;;;;6.57;6.07;;;;;;;;;;4998181;28;20133;-82
2022/04/30 07:28:22;;;;;;;6.32;5.82;;;;;;;;;;5014125;28;20468;-81
2022/04/30 07:30:58;;;;;;;6.43;5.82;;;;;;;;;;4997309;28;20057;-81
2022/04/30 07:33:26;;;;;;;6.70;5.88;;;;;;;;;;5018270;28;20042;-81
2022/04/30 07:36:00;;;;;;;7.53;6.70;;;;;;;;;;5016326;28;20129;-79
2022/04/30 07:38:28;;;;;;;7.55;6.85;;;;;;;;;;4996162;28;20518;-81
2022/04/30 07:40:55;;;;;;;6.53;5.93;;;;;;;;;;5009161;28;21702;-81
2022/04/30 07:43:22;;;;;;;6.20;5.60;;;;;;;;;;4998254;28;20704;-81
2022/04/30 07:45:50;;;;;;;6.18;5.57;;;;;;;;;;5017988;28;20042;-81
2022/04/30 07:48:17;;;;;;;7.63;5.50;;;;;;;;;;4997565;28;20127;-80
2022/04/30 07:50:45;;;;;;;13.75;6.07;;;;;;;;;;5008546;28;20042;-80
2022/04/30 07:53:14;;;;;;;7.28;6.00;;;;;;;;;;5010596;28;20521;-81
2022/04/30 07:55:43;;;;;;;7.35;5.20;;;;;;;;;;5020326;28;20072;-82
2022/04/30 07:58:10;;;;;;;9.63;5.70;;;;;;;;;;5009429;28;20136;-83
2022/04/30 08:00:38;;;;;;;5.93;4.85;;;;;;;;;;5009510;28;20141;-80
2022/04/30 08:03:06;;;;;;;7.47;5.35;;;;;;;;;;5014502;28;20045;-81
2022/04/30 08:05:49;;;;;;;4.03;3.70;;;;;;;;;;4999279;28;20069;-81
2022/04/30 08:08:16;;;;;;;4.15;3.67;;;;;;;;;;5012440;28;20274;-81
2022/04/30 08:10:45;;;;;;;2.97;2.58;;;;;;;;;;5006348;28;20042;-81
2022/04/30 08:13:13;;;;;;;7.97;3.25;;;;;;;;;;5014116;28;20049;-81
2022/04/30 08:15:44;;;;;;;4.13;3.40;;;;;;;;;;5023875;28;20048;-80
2022/04/30 08:18:11;;;;;;;7.35;3.03;;;;;;;;;;5008804;28;20484;-81
2022/04/30 08:20:40;;;;;;;5.68;4.00;;;;;;;;;;5025857;28;20538;-80
2022/04/30 08:23:08;;;;;;;5.60;3.90;;;;;;;;;;5014585;28;20491;-81
2022/04/30 08:25:36;;;;;;;10.55;4.13;;;;;;;;;;4999019;28;20069;-81
2022/04/30 08:28:04;;;;;;;4.95;3.60;;;;;;;;;;4999918;28;20041;-81
2022/04/30 08:30:32;;;;;;;5.38;3.40;;;;;;;;;;5017176;28;20497;-81
2022/04/30 08:33:00;;;;;;;8.00;4.55;;;;;;;;;;4995923;28;20094;-81
2022/04/30 08:35:27;;;;;;;5.70;3.78;;;;;;;;;;4994081;28;20531;-81
2022/04/30 08:38:07;;;;;;;7.63;4.15;;;;;;;;;;4992880;28;20510;-80
2022/04/30 08:40:35;;;;;;;6.15;4.38;;;;;;;;;;4978290;28;20050;-80
2022/04/30 08:43:10;;;;;;;3.85;3.35;;;;;;;;;;4993563;28;20037;-81
2022/04/30 08:45:38;;;;;;;6.07;4.93;;;;;;;;;;5011209;28;20045;-80
2022/04/30 08:48:09;;;;;;;3.40;2.97;;;;;;;;;;4991711;28;20037;-80
2022/04/30 08:50:37;;;;;;;7.70;4.35;;;;;;;;;;4963662;28;20555;-79
2022/04/30 08:53:05;;;;;;;6.65;3.45;;;;;;;;;;5005332;28;20057;-80
2022/04/30 08:55:33;;;;;;;5.28;3.83;;;;;;;;;;5018535;28;20412;-80
2022/04/30 08:58:04;;;;;;;6.32;4.60;;;;;;;;;;4993405;28;20056;-81
2022/04/30 09:00:38;;;;;;;13.45;4.68;;;;;;;;;;5004581;28;20467;-81
2022/04/30 09:03:05;;;;;;;6.45;3.90;;;;;;;;;;5007343;28;20038;-79
2022/04/30 09:05:35;;;;;;;3.30;2.97;;;;;;;;;;5005404;28;20446;-80
2022/04/30 09:08:02;;;;;;;5.32;3.35;;;;;;;;;;4990334;28;20113;-80
2022/04/30 09:10:30;;;;;;;6.25;4.05;;;;;;;;;;4974426;28;20041;-81
2022/04/30 09:13:08;;;;;;;6.80;4.25;;;;;;;;;;5002127;28;20132;-81
2022/04/30 09:15:35;;;;;;;5.93;4.45;;;;;;;;;;4978202;28;20082;-81
2022/04/30 09:18:04;;;;;;;6.55;4.38;;;;;;;;;;5015300;28;20048;-81
2022/04/30 09:20:40;;;;;;;3.92;2.75;;;;;;;;;;4987353;28;20177;-80
2022/04/30 09:23:32;;;;;;;4.47;3.55;;;;;;;;;;5011940;28;20180;-80
2022/04/30 09:26:03;;;;;;;4.20;3.50;;;;;;;;;;5011361;28;20450;-82
2022/04/30 09:28:32;;;;;;;4.47;3.10;;;;;;;;;;4978747;28;20468;-83
2022/04/30 09:31:33;;;;;;;2.88;2.28;;;;;;;;;;4993507;28;20049;-80
2022/04/30 09:37:41;;;;;;;3.88;3.03;;;;;;;;;;4993523;28;20048;-80
2022/04/30 09:39:36;;;;;;;3.15;2.40;;;;;;;;;;4994569;28;20048;-80
2022/04/30 09:42:03;;;;;;;3.17;2.60;;;;;;;;;;4989807;28;20045;-79
2022/04/30 09:44:37;;;;;;;3.10;2.60;;;;;;;;;;5005044;28;20455;-80
2022/04/30 09:47:07;;;;;;;6.45;2.53;;;;;;;;;;5008699;28;20486;-81
2022/04/30 09:55:08;;;;;;;2.80;2.55;;;;;;;;;;4989261;28;20057;-80
2022/04/30 09:57:36;;;;;;;3.20;2.80;;;;;;;;;;4987813;28;20034;-80
2022/04/30 10:00:08;;;;;;;3.60;2.60;;;;;;;;;;4977982;28;20077;-80
2022/04/30 10:02:39;;;;;;;12.98;3.50;;;;;;;;;;5007796;28;20050;-79
2022/04/30 10:05:07;;;;;;;4.63;2.88;;;;;;;;;;4979781;28;20128;-79
2022/04/30 10:07:35;;;;;;;3.55;2.42;;;;;;;;;;5007987;28;20038;-80
2022/04/30 10:10:02;;;;;;;8.30;2.40;;;;;;;;;;5005264;28;20116;-80
2022/04/30 10:12:38;;;;;;;3.67;2.20;;;;;;;;;;5003802;28;20105;-82
2022/04/30 10:15:05;;;;;;;6.25;2.40;;;;;;;;;;5004425;28;20045;-81
2022/04/30 10:17:34;;;;;;;2.60;2.40;;;;;;;;;;4991487;28;20083;-81
2022/04/30 10:20:07;;;;;;;2.22;2.13;;;;;;;;;;4991874;28;20061;-80
2022/04/30 10:22:35;;;;;;;5.85;2.40;;;;;;;;;;5014682;28;20042;-81
2022/04/30 10:25:07;;;;;;;5.88;2.20;;;;;;;;;;4997332;28;20076;-82
2022/04/30 10:27:41;;;;;;;4.00;2.00;;;;;;;;;;5012878;28;20048;-81
2022/04/30 10:30:27;;;;;;;3.03;2.25;;;;;;;;;;5011945;28;20121;-82
2022/04/30 10:32:59;;;;;;;3.20;2.22;;;;;;;;;;5005642;28;20049;-83
2022/04/30 10:35:26;;;;;;;;;;;;;;;;;;4990477;28;20050;-83
2022/04/30 10:37:54;;;;;;;4.55;2.20;;;;;;;;;;5018099;28;19928;-82
2022/04/30 10:40:21;;;;;;;5.70;1.85;;;;;;;;;;5013283;23;20070;-89
2022/04/30 10:42:49;;;;;;;4.38;1.98;;;;;;;;;;4979232;28;20043;-87
2022/04/30 10:45:29;;;;;;;2.95;2.00;;;;;;;;;;4994635;28;20055;-88
2022/04/30 10:47:57;;;;;;;3.55;2.13;;;;;;;;;;4957677;28;20055;-87
2022/04/30 10:50:26;;;;;;;3.75;2.20;;;;;;;;;;4951559;28;20069;-88
2022/04/30 10:53:01;;;;;;;2.08;1.95;;;;;;;;;;4962709;28;20058;-89
2022/04/30 10:55:29;;;;;;;2.60;2.40;;;;;;;;;;4946099;28;20594;-89
2022/04/30 10:58:00;;;;;;;2.63;2.10;;;;;;;;;;4939562;28;20042;-88
2022/04/30 11:00:30;;;;;;;2.10;1.90;;;;;;;;;;4948928;28;20238;-89
2022/04/30 11:03:08;;;;;;;2.53;1.88;;;;;;;;;;4962244;28;20075;-89
2022/04/30 11:05:35;;;;;;;3.60;1.55;;;;;;;;;;4990078;28;20038;-91
2022/04/30 11:08:06;;;;;;;2.05;1.80;;;;;;;;;;4944125;28;20039;-89
2022/04/30 11:10:34;;;;;;;2.90;2.10;;;;;;;;;;4994378;23;20137;-79
2022/04/30 11:13:06;;;;;;;4.45;1.83;;;;;;;;;;4991229;28;20051;-80
2022/04/30 11:15:34;;;;;;;3.03;1.77;;;;;;;;;;4991127;28;20041;-79
2022/04/30 11:18:01;;;;;;;4.50;2.00;;;;;;;;;;4973748;28;20042;-78
2022/04/30 11:20:28;;;;;;;2.10;1.80;;;;;;;;;;4983887;28;20085;-81
2022/04/30 11:22:57;;;;;;;3.72;1.60;;;;;;;;;;4948211;28;20141;-80
2022/04/30 11:25:44;;;;;;;2.03;1.80;;;;;;;;;;4990021;28;20050;-79
2022/04/30 11:28:12;;;;;;;1.80;1.70;;;;;;;;;;4984815;28;20038;-80
2022/04/30 11:30:40;;;;;;;2.40;2.20;;;;;;;;;;4971113;28;20045;-79
2022/04/30 11:33:08;;;;;;;2.15;1.77;;;;;;;;;;4982948;28;20035;-78
2022/04/30 11:35:36;;;;;;;2.10;1.88;;;;;;;;;;4986572;28;20102;-79
2022/04/30 11:38:08;;;;;;;3.83;2.08;;;;;;;;;;4957743;28;20058;-79
2022/04/30 11:40:35;;;;;;;2.30;1.92;;;;;;;;;;4983268;28;20070;-80
2022/04/30 11:43:03;;;;;;;2.45;1.67;;;;;;;;;;4985484;28;20041;-80
2022/04/30 11:45:31;;;;;;;1.90;1.80;;;;;;;;;;5015105;22;20425;-77
2022/04/30 11:48:22;;;;;;;5.43;1.88;;;;;;;;;;5008561;28;20080;-82
2022/04/30 11:50:49;;;;;;;2.03;1.85;;;;;;;;;;4975735;28;20056;-83
2022/04/30 11:53:17;;;;;;;2.00;1.90;;;;;;;;;;5007464;28;20053;-83
2022/04/30 11:55:44;;;;;;;1.80;1.70;;;;;;;;;;5017171;28;20045;-82
2022/04/30 11:58:11;;;;;;;2.38;2.05;;;;;;;;;;4993324;28;20057;-84
2022/04/30 12:00:59;;;;;;;2.67;1.98;;;;;;;;;;5019818;23;20049;-80
2022/04/30 12:03:26;;;;;;;4.00;1.90;;;;;;;;;;4996463;28;20042;-81
2022/04/30 12:05:54;;;;;;;3.13;1.70;;;;;;;;;;4976393;28;20137;-79
2022/04/30 12:08:27;;;;;;;1.65;1.55;;;;;;;;;;4979908;28;20063;-82
2022/04/30 12:10:58;;;;;;;3.53;1.88;;;;;;;;;;4971877;28;20046;-82
2022/04/30 12:13:26;;;;;;;1.55;1.45;;;;;;;;;;4989513;28;20047;-81
2022/04/30 12:16:04;;;;;;;3.33;1.58;;;;;;;;;;4971831;28;20049;-80
2022/04/30 12:27:19;;;;;;;2.35;1.67;;;;;;;;;;4935040;29;20071;-80
2022/04/30 12:29:47;;;;;;;1.67;1.48;;;;;;;;;;4929466;29;20052;-80
2022/04/30 12:32:17;;;;;;;2.63;1.33;;;;;;;;;;4921772;28;20047;-82
2022/04/30 12:34:51;;;;;;;2.00;1.33;;;;;;;;;;4970386;28;20054;-81
2022/04/30 12:37:28;;;;;;;2.53;1.40;;;;;;;;;;4987388;28;20042;-81
2022/04/30 12:39:57;;;;;;;1.33;1.20;;;;;;;;;;4969897;28;20060;-80
2022/04/30 12:42:24;;;;;;;1.92;1.60;;;;;;;;;;4971952;28;20057;-81
2022/04/30 12:44:51;;;;;;;5.35;1.55;;;;;;;;;;4989280;28;20049;-80
2022/04/30 12:47:19;;;;;;;2.03;1.90;;;;;;;;;;4994178;28;20038;-80
2022/04/30 12:49:46;;;;;;;2.20;1.50;;;;;;;;;;5002202;28;20389;-81
2022/04/30 12:52:15;;;;;;;1.85;1.58;;;;;;;;;;4987720;28;20516;-81
2022/04/30 12:54:42;;;;;;;2.17;1.60;;;;;;;;;;4978395;28;20050;-80
2022/04/30 12:57:11;;;;;;;1.52;1.42;;;;;;;;;;5011863;28;20042;-82
2022/04/30 12:59:39;;;;;;;2.03;1.83;;;;;;;;;;5011443;28;20100;-80
2022/04/30 13:02:07;;;;;;;2.10;1.80;;;;;;;;;;4972305;28;20521;-82
2022/04/30 13:04:36;;;;;;;4.35;1.55;;;;;;;;;;4957260;28;20397;-82
2022/04/30 13:07:05;;;;;;;2.08;1.85;;;;;;;;;;4975598;28;20042;-81
2022/04/30 13:15:04;;;;;;;2.70;1.70;;;;;;;;;;4991717;28;20046;-81
2022/04/30 13:17:31;;;;;;;2.55;1.70;;;;;;;;;;4983639;28;20598;-81
2022/04/30 13:19:59;;;;;;;2.92;1.60;;;;;;;;;;4974475;28;20512;-82
2022/04/30 13:22:29;;;;;;;2.65;1.50;;;;;;;;;;4980961;28;20070;-81
2022/04/30 13:24:57;;;;;;;4.03;1.50;;;;;;;;;;4992602;28;20042;-82
2022/04/30 13:27:24;;;;;;;1.70;1.40;;;;;;;;;;4990634;28;20049;-80
2022/04/30 13:29:51;;;;;;;1.55;1.45;;;;;;;;;;4971548;28;20042;-81
2022/04/30 13:32:19;;;;;;;1.67;1.50;;;;;;;;;;4972459;28;20042;-80
2022/04/30 13:34:47;;;;;;;1.52;1.40;;;;;;;;;;4992481;28;20039;-81
2022/04/30 13:37:14;;;;;;;1.40;1.30;;;;;;;;;;4960594;28;20157;-82
2022/04/30 13:39:42;;;;;;;1.73;1.60;;;;;;;;;;4996183;28;20046;-80
2022/04/30 13:42:09;;;;;;;2.65;1.98;;;;;;;;;;5014317;28;20431;-80
2022/04/30 13:44:37;;;;;;;1.60;1.50;;;;;;;;;;4977549;28;20713;-80
2022/04/30 13:47:04;;;;;;;2.40;1.60;;;;;;;;;;4980094;28;20046;-81
2022/04/30 13:49:32;;;;;;;2.88;1.45;;;;;;;;;;4981074;28;20662;-81
2022/04/30 13:51:59;;;;;;;1.75;1.60;;;;;;;;;;4990508;28;20041;-81
2022/04/30 13:54:26;;;;;;;1.48;1.40;;;;;;;;;;4990805;28;20220;-81
2022/04/30 13:56:53;;;;;;;5.32;1.80;;;;;;;;;;4991902;28;20587;-81
2022/04/30 13:59:25;;;;;;;2.10;1.70;;;;;;;;;;4991466;28;20041;-81
2022/04/30 14:01:53;;;;;;;3.67;2.08;;;;;;;;;;4992558;28;20599;-81
2022/04/30 14:04:22;;;;;;;2.90;1.60;;;;;;;;;;4990805;28;20427;-81
2022/04/30 14:06:49;;;;;;;3.03;1.52;;;;;;;;;;4991164;28;20419;-81
2022/04/30 14:09:17;;;;;;;1.80;1.70;;;;;;;;;;4956606;28;20432;-80
2022/04/30 14:11:44;;;;;;;2.97;1.40;;;;;;;;;;4981630;28;20038;-81
2022/04/30 14:16:57;;;;;;;1.88;1.77;;;;;;;;;;4988615;28;20038;-81
2022/04/30 14:19:24;;;;;;;1.77;1.40;;;;;;;;;;4965151;28;20046;-81
2022/04/30 14:21:52;;;;;;;2.75;1.50;;;;;;;;;;4964446;28;20068;-81
2022/04/30 14:24:19;;;;;;;1.60;1.30;;;;;;;;;;4948379;28;20121;-82
2022/04/30 14:26:54;;;;;;;2.28;1.30;;;;;;;;;;4960535;28;20042;-80
2022/04/30 14:29:21;;;;;;;2.10;1.90;;;;;;;;;;4988884;28;20058;-80
2022/04/30 14:31:48;;;;;;;3.38;1.55;;;;;;;;;;4981413;28;20050;-81
2022/04/30 14:34:15;;;;;;;1.85;1.70;;;;;;;;;;4990533;28;20411;-81
2022/04/30 14:36:43;;;;;;;2.33;1.75;;;;;;;;;;4993334;28;20058;-81
2022/04/30 14:39:11;;;;;;;2.25;2.05;;;;;;;;;;4975795;28;20050;-81
2022/04/30 14:41:38;;;;;;;3.50;1.90;;;;;;;;;;5004607;28;20046;-81
2022/04/30 14:44:06;;;;;;;2.38;1.42;;;;;;;;;;4988818;28;20125;-82
2022/04/30 14:46:40;;;;;;;1.80;1.70;;;;;;;;;;4974938;28;20079;-82
2022/04/30 14:49:08;;;;;;;4.63;2.00;;;;;;;;;;4982402;28;20085;-80
2022/04/30 14:51:35;;;;;;;2.22;1.80;;;;;;;;;;4992476;28;20304;-82
2022/04/30 14:54:03;;;;;;;1.70;1.60;;;;;;;;;;5010551;28;20459;-80
2022/04/30 14:56:31;;;;;;;1.77;1.67;;;;;;;;;;4998711;28;20463;-80
2022/04/30 14:58:58;;;;;;;4.00;1.80;;;;;;;;;;4992059;28;20137;-81
2022/04/30 15:01:25;;;;;;;2.72;1.48;;;;;;;;;;4987543;28;20478;-82
2022/04/30 15:03:53;;;;;;;3.83;1.73;;;;;;;;;;4983079;28;20077;-80
2022/04/30 15:06:20;;;;;;;2.88;1.60;;;;;;;;;;4977070;28;20141;-81
2022/04/30 15:08:48;;;;;;;4.45;2.20;;;;;;;;;;4995329;28;20043;-80
2022/04/30 15:11:15;;;;;;;3.92;1.98;;;;;;;;;;5002925;28;20046;-82
2022/04/30 15:13:43;;;;;;;2.47;1.70;;;;;;;;;;5013624;28;20136;-82
2022/04/30 15:16:11;;;;;;;2.55;1.60;;;;;;;;;;4992916;28;20069;-82
2022/04/30 15:18:39;;;;;;;1.60;1.50;;;;;;;;;;4998664;28;20046;-81
2022/04/30 15:21:06;;;;;;;1.60;1.50;;;;;;;;;;5001810;28;20065;-81
2022/04/30 15:23:33;;;;;;;2.45;1.52;;;;;;;;;;4984506;28;20035;-80
2022/04/30 15:26:01;;;;;;;2.15;1.40;;;;;;;;;;4961377;28;20406;-81
2022/04/30 15:28:29;;;;;;;3.80;1.40;;;;;;;;;;4994072;28;20077;-81
2022/04/30 15:31:06;;;;;;;5.22;1.70;;;;;;;;;;4986068;28;20045;-81
2022/04/30 15:33:33;;;;;;;1.50;1.40;;;;;;;;;;4961348;28;20085;-80
2022/04/30 15:36:03;;;;;;;5.22;2.08;;;;;;;;;;4974164;28;20085;-81
2022/04/30 15:38:30;;;;;;;2.08;1.73;;;;;;;;;;4982930;28;20088;-83
2022/04/30 15:41:01;;;;;;;2.55;1.70;;;;;;;;;;4995984;28;20136;-80
2022/04/30 15:43:30;;;;;;;3.30;1.90;;;;;;;;;;4951610;28;20394;-79
2022/04/30 15:45:58;;;;;;;3.53;1.90;;;;;;;;;;4968029;28;20039;-81
2022/04/30 15:51:45;;;;;;;5.85;1.70;;;;;;;;;;4971627;28;20034;-80